sensor_id;sensor_type;location;lat;lon;timestamp;P1;durP1;ratioP1;P2;durP2;ratioP2
48751;SDS011;34544;48.836;9.174;2024-02-26T00:01:26;10.23;;;4.15;;
48751;SDS011;34544;48.836;9.174;2024-02-26T00:03:52;9.93;;;4.28;;
48751;SDS011;34544;48.836;9.174;2024-02-26T00:06:19;7.18;;;3.00;;
48751;SDS011;34544;48.836;9.174;2024-02-26T00:08:45;7.18;;;3.58;;
48751;SDS011;34544;48.836;9.174;2024-02-26T00:11:11;6.45;;;2.97;;
48751;SDS011;34544;48.836;9.174;2024-02-26T00:13:36;3.42;;;1.90;;
48751;SDS011;34544;48.836;9.174;2024-02-26T00:16:02;2.33;;;1.83;;
48751;SDS011;34544;48.836;9.174;2024-02-26T00:18:33;5.55;;;2.17;;
48751;SDS011;34544;48.836;9.174;2024-02-26T00:20:58;3.35;;;1.83;;
48751;SDS011;34544;48.836;9.174;2024-02-26T00:23:25;3.38;;;2.03;;
48751;SDS011;34544;48.836;9.174;2024-02-26T00:25:52;4.85;;;2.20;;
48751;SDS011;34544;48.836;9.174;2024-02-26T00:28:17;3.17;;;1.95;;
48751;SDS011;34544;48.836;9.174;2024-02-26T00:30:45;2.83;;;1.92;;
48751;SDS011;34544;48.836;9.174;2024-02-26T00:33:11;3.53;;;2.50;;
48751;SDS011;34544;48.836;9.174;2024-02-26T00:35:37;3.00;;;2.15;;
48751;SDS011;34544;48.836;9.174;2024-02-26T00:38:03;4.03;;;2.30;;
48751;SDS011;34544;48.836;9.174;2024-02-26T00:40:29;5.65;;;2.05;;
48751;SDS011;34544;48.836;9.174;2024-02-26T00:42:55;4.10;;;2.10;;
48751;SDS011;34544;48.836;9.174;2024-02-26T00:45:20;3.85;;;1.88;;
48751;SDS011;34544;48.836;9.174;2024-02-26T00:47:47;3.95;;;1.92;;
48751;SDS011;34544;48.836;9.174;2024-02-26T00:50:14;2.08;;;1.48;;
48751;SDS011;34544;48.836;9.174;2024-02-26T00:52:40;3.70;;;2.15;;
48751;SDS011;34544;48.836;9.174;2024-02-26T00:55:06;3.85;;;1.70;;
48751;SDS011;34544;48.836;9.174;2024-02-26T00:57:32;2.70;;;1.75;;
48751;SDS011;34544;48.836;9.174;2024-02-26T00:59:58;7.65;;;1.67;;
48751;SDS011;34544;48.836;9.174;2024-02-26T01:02:25;2.97;;;2.10;;
48751;SDS011;34544;48.836;9.174;2024-02-26T01:04:52;2.85;;;1.80;;
48751;SDS011;34544;48.836;9.174;2024-02-26T01:07:19;3.00;;;1.85;;
48751;SDS011;34544;48.836;9.174;2024-02-26T01:09:44;3.05;;;1.55;;
48751;SDS011;34544;48.836;9.174;2024-02-26T01:12:10;3.15;;;1.20;;
48751;SDS011;34544;48.836;9.174;2024-02-26T01:14:36;1.50;;;1.33;;
48751;SDS011;34544;48.836;9.174;2024-02-26T01:17:01;2.72;;;1.65;;
48751;SDS011;34544;48.836;9.174;2024-02-26T01:19:27;4.78;;;1.95;;
48751;SDS011;34544;48.836;9.174;2024-02-26T01:21:53;4.28;;;1.65;;
48751;SDS011;34544;48.836;9.174;2024-02-26T01:24:19;3.03;;;1.80;;
48751;SDS011;34544;48.836;9.174;2024-02-26T01:26:44;3.03;;;1.55;;
48751;SDS011;34544;48.836;9.174;2024-02-26T01:29:10;4.10;;;1.80;;
48751;SDS011;34544;48.836;9.174;2024-02-26T01:31:36;3.30;;;1.70;;
48751;SDS011;34544;48.836;9.174;2024-02-26T01:34:01;1.88;;;1.55;;
48751;SDS011;34544;48.836;9.174;2024-02-26T01:36:27;4.78;;;2.15;;
48751;SDS011;34544;48.836;9.174;2024-02-26T01:38:52;5.22;;;2.90;;
48751;SDS011;34544;48.836;9.174;2024-02-26T01:41:18;3.97;;;2.13;;
48751;SDS011;34544;48.836;9.174;2024-02-26T01:43:44;2.95;;;2.22;;
48751;SDS011;34544;48.836;9.174;2024-02-26T01:46:10;6.30;;;1.70;;
48751;SDS011;34544;48.836;9.174;2024-02-26T01:48:42;3.38;;;2.25;;
48751;SDS011;34544;48.836;9.174;2024-02-26T01:51:09;4.68;;;2.70;;
48751;SDS011;34544;48.836;9.174;2024-02-26T01:53:37;3.28;;;2.05;;
48751;SDS011;34544;48.836;9.174;2024-02-26T01:56:03;4.20;;;1.95;;
48751;SDS011;34544;48.836;9.174;2024-02-26T01:58:29;4.65;;;2.25;;
48751;SDS011;34544;48.836;9.174;2024-02-26T02:00:56;4.10;;;2.17;;
48751;SDS011;34544;48.836;9.174;2024-02-26T02:03:22;6.30;;;2.35;;
48751;SDS011;34544;48.836;9.174;2024-02-26T02:05:48;2.60;;;2.08;;
48751;SDS011;34544;48.836;9.174;2024-02-26T02:08:14;4.75;;;1.88;;
48751;SDS011;34544;48.836;9.174;2024-02-26T02:10:43;4.30;;;2.22;;
48751;SDS011;34544;48.836;9.174;2024-02-26T02:13:09;2.90;;;1.90;;
48751;SDS011;34544;48.836;9.174;2024-02-26T02:15:34;3.47;;;1.98;;
48751;SDS011;34544;48.836;9.174;2024-02-26T02:18:00;4.28;;;1.90;;
48751;SDS011;34544;48.836;9.174;2024-02-26T02:20:31;2.97;;;2.03;;
48751;SDS011;34544;48.836;9.174;2024-02-26T02:23:00;2.80;;;1.58;;
48751;SDS011;34544;48.836;9.174;2024-02-26T02:25:26;3.28;;;1.90;;
48751;SDS011;34544;48.836;9.174;2024-02-26T02:27:55;2.88;;;1.67;;
48751;SDS011;34544;48.836;9.174;2024-02-26T02:30:25;3.42;;;2.20;;
48751;SDS011;34544;48.836;9.174;2024-02-26T02:35:20;5.68;;;2.15;;
48751;SDS011;34544;48.836;9.174;2024-02-26T02:37:46;6.15;;;2.35;;
48751;SDS011;34544;48.836;9.174;2024-02-26T02:40:11;3.83;;;2.13;;
48751;SDS011;34544;48.836;9.174;2024-02-26T02:42:37;2.63;;;1.92;;
48751;SDS011;34544;48.836;9.174;2024-02-26T02:45:03;2.75;;;2.30;;
48751;SDS011;34544;48.836;9.174;2024-02-26T02:47:29;4.38;;;1.90;;
48751;SDS011;34544;48.836;9.174;2024-02-26T02:49:55;5.18;;;2.60;;
48751;SDS011;34544;48.836;9.174;2024-02-26T02:52:20;3.90;;;2.45;;
48751;SDS011;34544;48.836;9.174;2024-02-26T02:54:46;2.65;;;1.73;;
48751;SDS011;34544;48.836;9.174;2024-02-26T02:57:12;5.28;;;2.75;;
48751;SDS011;34544;48.836;9.174;2024-02-26T02:59:37;3.22;;;2.17;;
48751;SDS011;34544;48.836;9.174;2024-02-26T03:02:04;3.50;;;1.75;;
48751;SDS011;34544;48.836;9.174;2024-02-26T03:04:30;4.15;;;2.13;;
48751;SDS011;34544;48.836;9.174;2024-02-26T03:06:56;3.58;;;2.22;;
48751;SDS011;34544;48.836;9.174;2024-02-26T03:09:22;5.78;;;2.38;;
48751;SDS011;34544;48.836;9.174;2024-02-26T03:11:48;3.15;;;2.17;;
48751;SDS011;34544;48.836;9.174;2024-02-26T03:14:14;3.50;;;2.20;;
48751;SDS011;34544;48.836;9.174;2024-02-26T03:16:40;3.78;;;2.42;;
48751;SDS011;34544;48.836;9.174;2024-02-26T03:19:06;3.42;;;1.92;;
48751;SDS011;34544;48.836;9.174;2024-02-26T03:21:32;2.88;;;1.70;;
48751;SDS011;34544;48.836;9.174;2024-02-26T03:23:58;3.38;;;2.00;;
48751;SDS011;34544;48.836;9.174;2024-02-26T03:26:24;2.67;;;2.08;;
48751;SDS011;34544;48.836;9.174;2024-02-26T03:28:50;4.82;;;2.22;;
48751;SDS011;34544;48.836;9.174;2024-02-26T03:31:15;3.17;;;1.83;;
48751;SDS011;34544;48.836;9.174;2024-02-26T03:33:41;3.33;;;1.65;;
48751;SDS011;34544;48.836;9.174;2024-02-26T03:36:07;3.38;;;2.00;;
48751;SDS011;34544;48.836;9.174;2024-02-26T03:38:33;3.30;;;1.73;;
48751;SDS011;34544;48.836;9.174;2024-02-26T03:40:59;4.07;;;1.92;;
48751;SDS011;34544;48.836;9.174;2024-02-26T03:43:25;4.15;;;2.28;;
48751;SDS011;34544;48.836;9.174;2024-02-26T03:45:52;2.70;;;1.85;;
48751;SDS011;34544;48.836;9.174;2024-02-26T03:48:18;3.22;;;1.70;;
48751;SDS011;34544;48.836;9.174;2024-02-26T03:50:43;3.50;;;2.03;;
48751;SDS011;34544;48.836;9.174;2024-02-26T03:53:09;2.78;;;2.03;;
48751;SDS011;34544;48.836;9.174;2024-02-26T03:55:38;2.38;;;2.00;;
48751;SDS011;34544;48.836;9.174;2024-02-26T03:58:04;3.70;;;1.98;;
48751;SDS011;34544;48.836;9.174;2024-02-26T04:00:29;7.70;;;2.30;;
48751;SDS011;34544;48.836;9.174;2024-02-26T04:02:55;3.10;;;1.77;;
48751;SDS011;34544;48.836;9.174;2024-02-26T04:05:21;5.00;;;2.03;;
48751;SDS011;34544;48.836;9.174;2024-02-26T04:07:47;2.95;;;2.15;;
48751;SDS011;34544;48.836;9.174;2024-02-26T04:10:12;4.97;;;2.00;;
48751;SDS011;34544;48.836;9.174;2024-02-26T04:12:39;7.13;;;2.30;;
48751;SDS011;34544;48.836;9.174;2024-02-26T04:15:09;3.13;;;1.90;;
48751;SDS011;34544;48.836;9.174;2024-02-26T04:17:35;2.80;;;1.33;;
48751;SDS011;34544;48.836;9.174;2024-02-26T04:20:02;2.47;;;1.70;;
48751;SDS011;34544;48.836;9.174;2024-02-26T04:22:29;2.33;;;1.70;;
48751;SDS011;34544;48.836;9.174;2024-02-26T04:24:54;2.22;;;1.85;;
48751;SDS011;34544;48.836;9.174;2024-02-26T04:27:20;5.00;;;1.52;;
48751;SDS011;34544;48.836;9.174;2024-02-26T04:29:46;3.30;;;1.23;;
48751;SDS011;34544;48.836;9.174;2024-02-26T04:32:11;2.60;;;1.60;;
48751;SDS011;34544;48.836;9.174;2024-02-26T04:34:37;1.75;;;1.45;;
48751;SDS011;34544;48.836;9.174;2024-02-26T04:37:03;1.83;;;1.50;;
48751;SDS011;34544;48.836;9.174;2024-02-26T04:39:28;2.47;;;1.58;;
48751;SDS011;34544;48.836;9.174;2024-02-26T04:41:54;3.40;;;1.48;;
48751;SDS011;34544;48.836;9.174;2024-02-26T04:44:19;1.63;;;1.30;;
48751;SDS011;34544;48.836;9.174;2024-02-26T04:46:45;3.47;;;1.70;;
48751;SDS011;34544;48.836;9.174;2024-02-26T04:49:11;2.38;;;1.55;;
48751;SDS011;34544;48.836;9.174;2024-02-26T04:51:37;3.03;;;1.50;;
48751;SDS011;34544;48.836;9.174;2024-02-26T04:54:02;2.30;;;1.65;;
48751;SDS011;34544;48.836;9.174;2024-02-26T04:56:28;2.22;;;1.77;;
48751;SDS011;34544;48.836;9.174;2024-02-26T04:58:54;5.20;;;1.67;;
48751;SDS011;34544;48.836;9.174;2024-02-26T05:01:20;4.43;;;1.50;;
48751;SDS011;34544;48.836;9.174;2024-02-26T05:03:45;3.95;;;1.55;;
48751;SDS011;34544;48.836;9.174;2024-02-26T05:06:11;1.83;;;1.58;;
48751;SDS011;34544;48.836;9.174;2024-02-26T05:08:38;2.30;;;1.40;;
48751;SDS011;34544;48.836;9.174;2024-02-26T05:11:04;3.80;;;1.30;;
48751;SDS011;34544;48.836;9.174;2024-02-26T05:13:29;2.63;;;1.80;;
48751;SDS011;34544;48.836;9.174;2024-02-26T05:15:56;2.10;;;1.40;;
48751;SDS011;34544;48.836;9.174;2024-02-26T05:18:22;3.08;;;2.17;;
48751;SDS011;34544;48.836;9.174;2024-02-26T05:20:47;4.57;;;1.75;;
48751;SDS011;34544;48.836;9.174;2024-02-26T05:23:13;2.38;;;1.42;;
48751;SDS011;34544;48.836;9.174;2024-02-26T05:25:39;6.63;;;2.65;;
48751;SDS011;34544;48.836;9.174;2024-02-26T05:28:05;7.53;;;2.33;;
48751;SDS011;34544;48.836;9.174;2024-02-26T05:30:31;4.88;;;2.88;;
48751;SDS011;34544;48.836;9.174;2024-02-26T05:32:56;6.03;;;2.47;;
48751;SDS011;34544;48.836;9.174;2024-02-26T05:35:22;6.18;;;3.53;;
48751;SDS011;34544;48.836;9.174;2024-02-26T05:37:48;5.22;;;3.17;;
48751;SDS011;34544;48.836;9.174;2024-02-26T05:40:13;6.50;;;2.70;;
48751;SDS011;34544;48.836;9.174;2024-02-26T05:42:39;11.18;;;3.13;;
48751;SDS011;34544;48.836;9.174;2024-02-26T05:45:05;5.70;;;3.03;;
48751;SDS011;34544;48.836;9.174;2024-02-26T05:47:34;5.90;;;2.78;;
48751;SDS011;34544;48.836;9.174;2024-02-26T05:50:01;3.67;;;2.60;;
48751;SDS011;34544;48.836;9.174;2024-02-26T05:52:27;3.88;;;1.90;;
48751;SDS011;34544;48.836;9.174;2024-02-26T05:54:56;2.22;;;1.95;;
48751;SDS011;34544;48.836;9.174;2024-02-26T05:57:22;4.85;;;2.42;;
48751;SDS011;34544;48.836;9.174;2024-02-26T05:59:48;3.72;;;2.88;;
48751;SDS011;34544;48.836;9.174;2024-02-26T06:02:13;3.10;;;2.28;;
48751;SDS011;34544;48.836;9.174;2024-02-26T06:04:39;3.92;;;1.92;;
48751;SDS011;34544;48.836;9.174;2024-02-26T06:07:06;4.40;;;1.88;;
48751;SDS011;34544;48.836;9.174;2024-02-26T06:09:31;3.80;;;1.90;;
48751;SDS011;34544;48.836;9.174;2024-02-26T06:11:57;3.22;;;2.10;;
48751;SDS011;34544;48.836;9.174;2024-02-26T06:14:22;3.63;;;2.08;;
48751;SDS011;34544;48.836;9.174;2024-02-26T06:16:48;6.22;;;2.17;;
48751;SDS011;34544;48.836;9.174;2024-02-26T06:19:14;3.30;;;2.22;;
48751;SDS011;34544;48.836;9.174;2024-02-26T06:21:40;6.68;;;2.40;;
48751;SDS011;34544;48.836;9.174;2024-02-26T06:24:06;2.83;;;2.38;;
48751;SDS011;34544;48.836;9.174;2024-02-26T06:26:31;5.70;;;2.60;;
48751;SDS011;34544;48.836;9.174;2024-02-26T06:28:58;3.67;;;2.38;;
48751;SDS011;34544;48.836;9.174;2024-02-26T06:31:24;4.40;;;2.47;;
48751;SDS011;34544;48.836;9.174;2024-02-26T06:33:52;6.00;;;2.90;;
48751;SDS011;34544;48.836;9.174;2024-02-26T06:36:19;4.72;;;2.05;;
48751;SDS011;34544;48.836;9.174;2024-02-26T06:38:44;3.55;;;2.30;;
48751;SDS011;34544;48.836;9.174;2024-02-26T06:41:10;4.97;;;2.53;;
48751;SDS011;34544;48.836;9.174;2024-02-26T06:43:36;4.43;;;2.45;;
48751;SDS011;34544;48.836;9.174;2024-02-26T06:46:02;3.60;;;2.67;;
48751;SDS011;34544;48.836;9.174;2024-02-26T06:48:28;5.85;;;3.30;;
48751;SDS011;34544;48.836;9.174;2024-02-26T06:50:53;4.82;;;2.55;;
48751;SDS011;34544;48.836;9.174;2024-02-26T06:53:19;9.48;;;2.72;;
48751;SDS011;34544;48.836;9.174;2024-02-26T06:55:45;3.38;;;2.40;;
48751;SDS011;34544;48.836;9.174;2024-02-26T06:58:10;4.47;;;2.42;;
48751;SDS011;34544;48.836;9.174;2024-02-26T07:00:36;5.47;;;2.40;;
48751;SDS011;34544;48.836;9.174;2024-02-26T07:03:02;5.93;;;3.25;;
48751;SDS011;34544;48.836;9.174;2024-02-26T07:05:28;4.72;;;2.63;;
48751;SDS011;34544;48.836;9.174;2024-02-26T07:07:54;7.70;;;2.45;;
48751;SDS011;34544;48.836;9.174;2024-02-26T07:10:19;6.60;;;2.63;;
48751;SDS011;34544;48.836;9.174;2024-02-26T07:12:46;3.83;;;2.60;;
48751;SDS011;34544;48.836;9.174;2024-02-26T07:15:12;3.40;;;2.67;;
48751;SDS011;34544;48.836;9.174;2024-02-26T07:17:37;6.10;;;2.92;;
48751;SDS011;34544;48.836;9.174;2024-02-26T07:20:06;3.22;;;2.63;;
48751;SDS011;34544;48.836;9.174;2024-02-26T07:22:33;4.88;;;2.75;;
48751;SDS011;34544;48.836;9.174;2024-02-26T07:24:59;11.65;;;3.05;;
48751;SDS011;34544;48.836;9.174;2024-02-26T07:27:24;7.88;;;2.90;;
48751;SDS011;34544;48.836;9.174;2024-02-26T07:29:50;5.20;;;2.65;;
48751;SDS011;34544;48.836;9.174;2024-02-26T07:32:16;6.35;;;2.90;;
48751;SDS011;34544;48.836;9.174;2024-02-26T07:34:42;2.92;;;2.33;;
48751;SDS011;34544;48.836;9.174;2024-02-26T07:37:10;8.30;;;2.65;;
48751;SDS011;34544;48.836;9.174;2024-02-26T07:39:36;6.50;;;2.72;;
48751;SDS011;34544;48.836;9.174;2024-02-26T07:42:02;6.88;;;2.65;;
48751;SDS011;34544;48.836;9.174;2024-02-26T07:44:28;4.68;;;2.65;;
48751;SDS011;34544;48.836;9.174;2024-02-26T07:46:54;3.90;;;2.83;;
48751;SDS011;34544;48.836;9.174;2024-02-26T07:49:19;4.38;;;2.70;;
48751;SDS011;34544;48.836;9.174;2024-02-26T07:51:45;4.75;;;2.53;;
48751;SDS011;34544;48.836;9.174;2024-02-26T07:54:11;6.65;;;2.90;;
48751;SDS011;34544;48.836;9.174;2024-02-26T07:56:37;8.15;;;3.08;;
48751;SDS011;34544;48.836;9.174;2024-02-26T07:59:02;4.35;;;2.88;;
48751;SDS011;34544;48.836;9.174;2024-02-26T08:01:28;7.90;;;3.50;;
48751;SDS011;34544;48.836;9.174;2024-02-26T08:03:54;9.65;;;3.70;;
48751;SDS011;34544;48.836;9.174;2024-02-26T08:06:20;5.93;;;3.97;;
48751;SDS011;34544;48.836;9.174;2024-02-26T08:08:46;4.00;;;2.92;;
48751;SDS011;34544;48.836;9.174;2024-02-26T08:11:14;7.72;;;2.95;;
48751;SDS011;34544;48.836;9.174;2024-02-26T08:13:40;4.75;;;3.33;;
48751;SDS011;34544;48.836;9.174;2024-02-26T08:16:07;6.32;;;2.90;;
48751;SDS011;34544;48.836;9.174;2024-02-26T08:18:33;6.10;;;3.42;;
48751;SDS011;34544;48.836;9.174;2024-02-26T08:20:59;7.13;;;3.30;;
48751;SDS011;34544;48.836;9.174;2024-02-26T08:23:24;6.78;;;3.60;;
48751;SDS011;34544;48.836;9.174;2024-02-26T08:25:51;7.75;;;3.42;;
48751;SDS011;34544;48.836;9.174;2024-02-26T08:28:16;7.22;;;4.03;;
48751;SDS011;34544;48.836;9.174;2024-02-26T08:30:43;6.93;;;3.65;;
48751;SDS011;34544;48.836;9.174;2024-02-26T08:33:09;4.82;;;2.72;;
48751;SDS011;34544;48.836;9.174;2024-02-26T08:35:35;10.68;;;4.15;;
48751;SDS011;34544;48.836;9.174;2024-02-26T08:38:01;5.25;;;3.33;;
48751;SDS011;34544;48.836;9.174;2024-02-26T08:40:27;3.85;;;3.03;;
48751;SDS011;34544;48.836;9.174;2024-02-26T08:42:54;4.30;;;2.70;;
48751;SDS011;34544;48.836;9.174;2024-02-26T08:45:20;5.10;;;3.08;;
48751;SDS011;34544;48.836;9.174;2024-02-26T08:47:46;5.00;;;3.35;;
48751;SDS011;34544;48.836;9.174;2024-02-26T08:50:11;3.25;;;2.30;;
48751;SDS011;34544;48.836;9.174;2024-02-26T08:52:38;3.05;;;2.05;;
48751;SDS011;34544;48.836;9.174;2024-02-26T08:55:05;6.40;;;2.65;;
48751;SDS011;34544;48.836;9.174;2024-02-26T08:57:31;7.43;;;2.50;;
48751;SDS011;34544;48.836;9.174;2024-02-26T09:00:00;3.97;;;2.10;;
48751;SDS011;34544;48.836;9.174;2024-02-26T09:02:26;4.28;;;2.47;;
48751;SDS011;34544;48.836;9.174;2024-02-26T09:04:52;6.68;;;2.92;;
48751;SDS011;34544;48.836;9.174;2024-02-26T09:07:20;3.63;;;2.80;;
48751;SDS011;34544;48.836;9.174;2024-02-26T09:09:46;3.92;;;2.47;;
48751;SDS011;34544;48.836;9.174;2024-02-26T09:12:12;3.65;;;2.60;;
48751;SDS011;34544;48.836;9.174;2024-02-26T09:14:37;9.10;;;2.75;;
48751;SDS011;34544;48.836;9.174;2024-02-26T09:17:03;6.28;;;2.75;;
48751;SDS011;34544;48.836;9.174;2024-02-26T09:19:30;4.03;;;2.60;;
48751;SDS011;34544;48.836;9.174;2024-02-26T09:21:56;4.68;;;2.60;;
48751;SDS011;34544;48.836;9.174;2024-02-26T09:24:23;4.00;;;2.50;;
48751;SDS011;34544;48.836;9.174;2024-02-26T09:26:50;6.82;;;2.45;;
48751;SDS011;34544;48.836;9.174;2024-02-26T09:29:15;6.22;;;2.72;;
48751;SDS011;34544;48.836;9.174;2024-02-26T09:31:42;10.18;;;2.85;;
48751;SDS011;34544;48.836;9.174;2024-02-26T09:34:08;2.83;;;2.15;;
48751;SDS011;34544;48.836;9.174;2024-02-26T09:36:34;4.90;;;2.58;;
48751;SDS011;34544;48.836;9.174;2024-02-26T09:39:00;13.57;;;2.63;;
48751;SDS011;34544;48.836;9.174;2024-02-26T09:41:27;5.10;;;2.70;;
48751;SDS011;34544;48.836;9.174;2024-02-26T09:43:56;3.03;;;2.45;;
48751;SDS011;34544;48.836;9.174;2024-02-26T09:46:22;6.35;;;2.47;;
48751;SDS011;34544;48.836;9.174;2024-02-26T09:48:49;4.22;;;2.88;;
48751;SDS011;34544;48.836;9.174;2024-02-26T09:51:15;3.33;;;2.20;;
48751;SDS011;34544;48.836;9.174;2024-02-26T09:53:43;3.42;;;2.20;;
48751;SDS011;34544;48.836;9.174;2024-02-26T09:56:11;6.72;;;2.25;;
48751;SDS011;34544;48.836;9.174;2024-02-26T09:58:38;5.43;;;2.00;;
48751;SDS011;34544;48.836;9.174;2024-02-26T10:01:07;6.15;;;1.95;;
48751;SDS011;34544;48.836;9.174;2024-02-26T10:03:42;3.67;;;2.42;;
48751;SDS011;34544;48.836;9.174;2024-02-26T10:06:10;2.95;;;2.45;;
48751;SDS011;34544;48.836;9.174;2024-02-26T10:08:36;2.28;;;2.03;;
48751;SDS011;34544;48.836;9.174;2024-02-26T10:11:04;3.58;;;2.97;;
48751;SDS011;34544;48.836;9.174;2024-02-26T10:13:31;4.82;;;2.55;;
48751;SDS011;34544;48.836;9.174;2024-02-26T10:15:57;7.53;;;2.80;;
48751;SDS011;34544;48.836;9.174;2024-02-26T10:18:23;3.33;;;2.25;;
48751;SDS011;34544;48.836;9.174;2024-02-26T10:20:59;4.53;;;1.92;;
48751;SDS011;34544;48.836;9.174;2024-02-26T10:23:26;5.13;;;2.10;;
48751;SDS011;34544;48.836;9.174;2024-02-26T10:25:54;3.20;;;2.47;;
48751;SDS011;34544;48.836;9.174;2024-02-26T10:28:20;5.38;;;2.20;;
48751;SDS011;34544;48.836;9.174;2024-02-26T10:30:46;3.53;;;2.00;;
48751;SDS011;34544;48.836;9.174;2024-02-26T10:33:12;2.55;;;2.15;;
48751;SDS011;34544;48.836;9.174;2024-02-26T10:35:47;5.68;;;2.05;;
48751;SDS011;34544;48.836;9.174;2024-02-26T10:38:13;4.25;;;2.40;;
48751;SDS011;34544;48.836;9.174;2024-02-26T10:40:42;4.65;;;1.80;;
48751;SDS011;34544;48.836;9.174;2024-02-26T10:43:08;5.32;;;2.40;;
48751;SDS011;34544;48.836;9.174;2024-02-26T10:45:34;2.60;;;1.83;;
48751;SDS011;34544;48.836;9.174;2024-02-26T10:48:00;2.03;;;1.85;;
48751;SDS011;34544;48.836;9.174;2024-02-26T10:50:25;3.33;;;2.42;;
48751;SDS011;34544;48.836;9.174;2024-02-26T10:52:51;3.40;;;1.92;;
48751;SDS011;34544;48.836;9.174;2024-02-26T10:55:20;4.07;;;1.60;;
48751;SDS011;34544;48.836;9.174;2024-02-26T10:57:47;4.07;;;1.92;;
48751;SDS011;34544;48.836;9.174;2024-02-26T11:00:15;3.00;;;1.60;;
48751;SDS011;34544;48.836;9.174;2024-02-26T11:02:41;5.28;;;1.75;;
48751;SDS011;34544;48.836;9.174;2024-02-26T11:05:11;2.63;;;1.80;;
48751;SDS011;34544;48.836;9.174;2024-02-26T11:07:38;4.40;;;1.90;;
48751;SDS011;34544;48.836;9.174;2024-02-26T11:10:05;4.80;;;1.55;;
48751;SDS011;34544;48.836;9.174;2024-02-26T11:12:32;4.68;;;1.80;;
48751;SDS011;34544;48.836;9.174;2024-02-26T11:15:01;3.72;;;1.92;;
48751;SDS011;34544;48.836;9.174;2024-02-26T11:17:28;4.53;;;1.60;;
48751;SDS011;34544;48.836;9.174;2024-02-26T11:19:57;3.53;;;1.20;;
48751;SDS011;34544;48.836;9.174;2024-02-26T11:22:24;1.67;;;1.50;;
48751;SDS011;34544;48.836;9.174;2024-02-26T11:24:54;1.60;;;1.30;;
48751;SDS011;34544;48.836;9.174;2024-02-26T11:27:26;2.97;;;1.30;;
48751;SDS011;34544;48.836;9.174;2024-02-26T11:29:56;1.58;;;1.23;;
48751;SDS011;34544;48.836;9.174;2024-02-26T11:32:25;1.65;;;1.10;;
48751;SDS011;34544;48.836;9.174;2024-02-26T11:34:53;1.92;;;1.13;;
48751;SDS011;34544;48.836;9.174;2024-02-26T11:37:19;1.45;;;1.08;;
48751;SDS011;34544;48.836;9.174;2024-02-26T11:39:45;4.93;;;1.13;;
48751;SDS011;34544;48.836;9.174;2024-02-26T11:42:13;2.33;;;1.52;;
48751;SDS011;34544;48.836;9.174;2024-02-26T11:44:40;3.10;;;1.13;;
48751;SDS011;34544;48.836;9.174;2024-02-26T11:47:12;2.47;;;1.17;;
48751;SDS011;34544;48.836;9.174;2024-02-26T11:49:44;1.83;;;1.10;;
48751;SDS011;34544;48.836;9.174;2024-02-26T11:52:10;2.35;;;1.70;;
48751;SDS011;34544;48.836;9.174;2024-02-26T11:54:40;1.98;;;1.20;;
48751;SDS011;34544;48.836;9.174;2024-02-26T11:57:25;1.17;;;1.08;;
48751;SDS011;34544;48.836;9.174;2024-02-26T12:02:38;3.10;;;0.90;;
48751;SDS011;34544;48.836;9.174;2024-02-26T12:05:14;1.25;;;1.00;;
48751;SDS011;34544;48.836;9.174;2024-02-26T12:07:46;3.08;;;1.40;;
48751;SDS011;34544;48.836;9.174;2024-02-26T12:10:25;4.75;;;0.93;;
48751;SDS011;34544;48.836;9.174;2024-02-26T12:12:54;1.27;;;1.17;;
48751;SDS011;34544;48.836;9.174;2024-02-26T12:15:33;1.58;;;1.30;;
48751;SDS011;34544;48.836;9.174;2024-02-26T12:18:02;1.98;;;1.40;;
48751;SDS011;34544;48.836;9.174;2024-02-26T12:20:29;4.18;;;1.25;;
48751;SDS011;34544;48.836;9.174;2024-02-26T12:22:58;2.83;;;1.25;;
48751;SDS011;34544;48.836;9.174;2024-02-26T12:25:24;2.05;;;1.58;;
48751;SDS011;34544;48.836;9.174;2024-02-26T12:27:52;2.97;;;1.38;;
48751;SDS011;34544;48.836;9.174;2024-02-26T12:30:19;2.10;;;1.45;;
48751;SDS011;34544;48.836;9.174;2024-02-26T12:32:48;3.20;;;2.08;;
48751;SDS011;34544;48.836;9.174;2024-02-26T12:35:15;2.35;;;1.60;;
48751;SDS011;34544;48.836;9.174;2024-02-26T12:37:43;4.28;;;1.40;;
48751;SDS011;34544;48.836;9.174;2024-02-26T12:40:09;3.35;;;1.40;;
48751;SDS011;34544;48.836;9.174;2024-02-26T12:42:36;2.30;;;1.20;;
48751;SDS011;34544;48.836;9.174;2024-02-26T12:45:06;2.17;;;1.30;;
48751;SDS011;34544;48.836;9.174;2024-02-26T12:47:43;2.72;;;1.13;;
48751;SDS011;34544;48.836;9.174;2024-02-26T12:50:14;5.22;;;1.40;;
48751;SDS011;34544;48.836;9.174;2024-02-26T12:52:43;1.50;;;1.17;;
48751;SDS011;34544;48.836;9.174;2024-02-26T12:55:11;2.05;;;1.35;;
48751;SDS011;34544;48.836;9.174;2024-02-26T12:57:42;1.65;;;1.27;;
48751;SDS011;34544;48.836;9.174;2024-02-26T13:00:08;2.42;;;1.13;;
48751;SDS011;34544;48.836;9.174;2024-02-26T13:02:39;1.83;;;1.10;;
48751;SDS011;34544;48.836;9.174;2024-02-26T13:05:09;1.23;;;0.90;;
48751;SDS011;34544;48.836;9.174;2024-02-26T13:07:42;1.50;;;1.40;;
48751;SDS011;34544;48.836;9.174;2024-02-26T13:10:09;3.42;;;1.23;;
48751;SDS011;34544;48.836;9.174;2024-02-26T13:12:43;1.60;;;1.13;;
48751;SDS011;34544;48.836;9.174;2024-02-26T13:15:09;2.28;;;1.08;;
48751;SDS011;34544;48.836;9.174;2024-02-26T13:17:40;2.30;;;1.02;;
48751;SDS011;34544;48.836;9.174;2024-02-26T13:20:07;3.00;;;1.38;;
48751;SDS011;34544;48.836;9.174;2024-02-26T13:22:34;2.03;;;1.33;;
48751;SDS011;34544;48.836;9.174;2024-02-26T13:25:00;2.10;;;1.10;;
48751;SDS011;34544;48.836;9.174;2024-02-26T13:27:28;3.78;;;1.20;;
48751;SDS011;34544;48.836;9.174;2024-02-26T13:30:08;2.30;;;1.20;;
48751;SDS011;34544;48.836;9.174;2024-02-26T13:32:36;3.45;;;1.15;;
48751;SDS011;34544;48.836;9.174;2024-02-26T13:40:04;1.27;;;1.13;;
48751;SDS011;34544;48.836;9.174;2024-02-26T13:42:35;1.20;;;0.80;;
48751;SDS011;34544;48.836;9.174;2024-02-26T13:45:01;2.45;;;1.27;;
48751;SDS011;34544;48.836;9.174;2024-02-26T13:47:27;1.55;;;1.05;;
48751;SDS011;34544;48.836;9.174;2024-02-26T13:49:53;1.55;;;1.45;;
48751;SDS011;34544;48.836;9.174;2024-02-26T13:52:19;2.60;;;0.80;;
48751;SDS011;34544;48.836;9.174;2024-02-26T13:54:48;2.13;;;1.00;;
48751;SDS011;34544;48.836;9.174;2024-02-26T13:57:13;1.90;;;1.23;;
48751;SDS011;34544;48.836;9.174;2024-02-26T13:59:39;2.92;;;1.20;;
48751;SDS011;34544;48.836;9.174;2024-02-26T14:02:10;1.10;;;1.00;;
48751;SDS011;34544;48.836;9.174;2024-02-26T14:04:36;1.10;;;0.80;;
48751;SDS011;34544;48.836;9.174;2024-02-26T14:07:02;1.05;;;0.68;;
48751;SDS011;34544;48.836;9.174;2024-02-26T14:09:29;0.88;;;0.80;;
48751;SDS011;34544;48.836;9.174;2024-02-26T14:11:55;1.63;;;0.70;;
48751;SDS011;34544;48.836;9.174;2024-02-26T14:14:20;2.28;;;0.70;;
48751;SDS011;34544;48.836;9.174;2024-02-26T14:16:46;0.60;;;0.60;;
48751;SDS011;34544;48.836;9.174;2024-02-26T14:19:12;2.03;;;0.82;;
48751;SDS011;34544;48.836;9.174;2024-02-26T14:21:37;0.75;;;0.60;;
48751;SDS011;34544;48.836;9.174;2024-02-26T14:24:03;0.90;;;0.50;;
48751;SDS011;34544;48.836;9.174;2024-02-26T14:26:29;1.00;;;0.75;;
48751;SDS011;34544;48.836;9.174;2024-02-26T14:28:55;0.82;;;0.73;;
48751;SDS011;34544;48.836;9.174;2024-02-26T14:31:21;1.38;;;1.00;;
48751;SDS011;34544;48.836;9.174;2024-02-26T14:33:47;0.93;;;0.55;;
48751;SDS011;34544;48.836;9.174;2024-02-26T14:36:13;1.75;;;1.10;;
48751;SDS011;34544;48.836;9.174;2024-02-26T14:38:39;0.30;;;0.30;;
48751;SDS011;34544;48.836;9.174;2024-02-26T14:41:05;0.75;;;0.50;;
48751;SDS011;34544;48.836;9.174;2024-02-26T14:43:31;1.60;;;0.40;;
48751;SDS011;34544;48.836;9.174;2024-02-26T14:45:57;1.48;;;0.85;;
48751;SDS011;34544;48.836;9.174;2024-02-26T14:48:25;2.08;;;0.75;;
48751;SDS011;34544;48.836;9.174;2024-02-26T14:50:51;1.85;;;0.55;;
48751;SDS011;34544;48.836;9.174;2024-02-26T14:53:17;1.67;;;0.50;;
48751;SDS011;34544;48.836;9.174;2024-02-26T14:55:43;0.70;;;0.50;;